Time;durP1;ratioP1;P1;durP2;ratioP2;P2;SDS_P1;SDS_P2;PMS_P1;PMS_P2;Temp;Humidity;BMP_temperature;BMP_pressure;BME280_temperature;BME280_humidity;BME280_pressure;Samples;Min_cycle;Max_cycle;Signal;HPM_P1;HPM_P2
2021/06/10 00:00:48;;;;;;;;;;;25.60;99.90;;;;;;1832013;78;20223;-88
2021/06/10 00:03:18;;;;;;;;;;;25.60;99.90;;;;;;1829865;77;20147;-89
2021/06/10 00:05:48;;;;;;;;;;;25.60;99.90;;;;;;1852080;77;20197;-88
2021/06/10 00:08:18;;;;;;;;;;;25.60;99.90;;;;;;1830973;77;20249;-88
2021/06/10 00:10:48;;;;;;;;;;;25.60;99.90;;;;;;1832710;77;20253;-88
2021/06/10 00:13:18;;;;;;;;;;;25.60;99.90;;;;;;1819643;78;20205;-88
2021/06/10 00:15:48;;;;;;;;;;;25.60;99.90;;;;;;1823062;77;20218;-88
2021/06/10 00:18:18;;;;;;;;;;;25.60;99.90;;;;;;1820339;77;20156;-88
2021/06/10 00:20:48;;;;;;;;;;;25.60;99.90;;;;;;1823842;77;20168;-88
2021/06/10 00:23:18;;;;;;;;;;;25.60;99.90;;;;;;1820618;77;20436;-89
2021/06/10 00:25:47;;;;;;;;;;;25.60;99.90;;;;;;1823136;77;20187;-88
2021/06/10 00:28:17;;;;;;;;;;;25.60;99.90;;;;;;1821468;78;20140;-88
2021/06/10 00:30:48;;;;;;;;;;;25.60;99.90;;;;;;1821549;78;20235;-89
2021/06/10 00:33:17;;;;;;;;;;;25.70;99.90;;;;;;1821511;77;20137;-88
2021/06/10 00:35:47;;;;;;;;;;;25.60;99.90;;;;;;1819580;78;20184;-88
2021/06/10 00:38:17;;;;;;;;;;;25.60;99.90;;;;;;1827569;77;20499;-88
2021/06/10 00:40:46;;;;;;;;;;;25.70;99.90;;;;;;1822845;77;20164;-88
2021/06/10 00:43:16;;;;;;;;;;;25.70;99.90;;;;;;1824796;78;20485;-88
2021/06/10 00:45:46;;;;;;;;;;;25.70;99.90;;;;;;1823092;77;20180;-86
2021/06/10 00:48:16;;;;;;;;;;;25.70;99.90;;;;;;1828266;78;20188;-88
2021/06/10 00:50:47;;;;;;;;;;;25.70;99.90;;;;;;1812314;77;20238;-88
2021/06/10 00:53:25;;;;;;;;;;;25.70;99.90;;;;;;1825626;77;20243;-87
2021/06/10 00:55:49;;;;;;;;;;;25.70;99.90;;;;;;1767224;80;20141;-88
2021/06/10 00:58:19;;;;;;;;;;;25.70;99.90;;;;;;1765845;80;20204;-88
2021/06/10 01:00:48;;;;;;;;;;;25.70;99.90;;;;;;1766519;81;20243;-89
2021/06/10 01:03:18;;;;;;;;;;;25.70;99.90;;;;;;1763826;80;20215;-88
2021/06/10 01:05:49;;;;;;;;;;;25.70;99.90;;;;;;1777344;80;20193;-89
2021/06/10 01:08:23;;;;;;;;;;;25.80;99.90;;;;;;1800358;80;20165;-88
2021/06/10 01:10:52;;;;;;;;;;;25.80;99.90;;;;;;1762516;81;20192;-88
2021/06/10 01:13:23;;;;;;;;;;;25.80;99.90;;;;;;1767609;80;20298;-86
2021/06/10 01:15:54;;;;;;;;;;;25.80;99.90;;;;;;1760017;80;20137;-88
2021/06/10 01:18:25;;;;;;;;;;;25.80;99.90;;;;;;1750005;81;20248;-87
2021/06/10 01:20:55;;;;;;;;;;;25.80;99.90;;;;;;1755429;81;20294;-87
2021/06/10 01:23:30;;;;;;;;;;;25.80;99.90;;;;;;1757482;80;20295;-88
2021/06/10 01:25:58;;;;;;;;;;;25.80;99.90;;;;;;1759617;81;20284;-88
2021/06/10 01:28:29;;;;;;;;;;;25.80;99.90;;;;;;1753985;81;20174;-89
2021/06/10 01:31:00;;;;;;;;;;;25.90;99.90;;;;;;1761443;80;20139;-89
2021/06/10 01:33:31;;;;;;;;;;;25.90;99.90;;;;;;1754323;80;20316;-89
2021/06/10 01:36:02;;;;;;;;;;;25.90;99.90;;;;;;1766890;79;20198;-88
2021/06/10 01:38:33;;;;;;;;;;;25.90;99.90;;;;;;1743865;79;20123;-90
2021/06/10 01:41:02;;;;;;;;;;;25.90;99.90;;;;;;1754139;81;20200;-90
2021/06/10 01:43:33;;;;;;;;;;;25.90;99.90;;;;;;1768445;80;20143;-91
2021/06/10 01:46:04;;;;;;;;;;;25.90;99.90;;;;;;1740637;81;20189;-90
2021/06/10 01:48:35;;;;;;;;;;;26.00;99.90;;;;;;1758674;80;20141;-87
2021/06/10 01:51:05;;;;;;;;;;;26.00;99.90;;;;;;1816420;77;20201;-90
2021/06/10 01:53:36;;;;;;;;;;;26.00;99.90;;;;;;1813023;77;20229;-89
2021/06/10 01:56:07;;;;;;;;;;;26.10;99.90;;;;;;1830934;77;20157;-91
2021/06/10 01:58:42;;;;;;;;;;;26.10;99.90;;;;;;1810686;77;20180;-90
2021/06/10 02:01:23;;;;;;;;;;;26.10;99.90;;;;;;1820776;77;20250;-88
2021/06/10 02:04:14;;;;;;;;;;;26.10;99.90;;;;;;1820066;77;20139;-89
2021/06/10 02:06:45;;;;;;;;;;;26.10;99.90;;;;;;1829653;77;20245;-89
2021/06/10 02:09:17;;;;;;;;;;;26.20;99.90;;;;;;1831147;77;20193;-90
2021/06/10 02:11:48;;;;;;;;;;;26.20;99.90;;;;;;1840237;77;20205;-89
2021/06/10 02:14:19;;;;;;;;;;;26.30;99.90;;;;;;1813057;78;20174;-78
2021/06/10 02:16:50;;;;;;;;;;;26.30;99.90;;;;;;1817771;77;20130;-79
2021/06/10 02:19:22;;;;;;;;;;;26.30;99.90;;;;;;1827211;77;20216;-79
2021/06/10 02:21:52;;;;;;;;;;;26.30;99.90;;;;;;1837208;77;20122;-80
2021/06/10 02:24:21;;;;;;;;;;;26.40;99.90;;;;;;1840807;77;20213;-79
2021/06/10 02:26:51;;;;;;;;;;;26.40;99.90;;;;;;1829130;77;20223;-78
2021/06/10 02:29:21;;;;;;;;;;;26.40;99.90;;;;;;1823052;77;20734;-79
2021/06/10 02:31:50;;;;;;;;;;;26.40;99.90;;;;;;1812331;77;20274;-78
2021/06/10 02:34:21;;;;;;;;;;;26.50;99.90;;;;;;1819701;77;20243;-81
2021/06/10 02:36:56;;;;;;;;;;;26.50;99.90;;;;;;1822525;77;20184;-77
2021/06/10 02:39:23;;;;;;;;;;;26.50;99.90;;;;;;1822899;77;20210;-77
2021/06/10 02:41:53;;;;;;;;;;;26.60;99.90;;;;;;1825925;77;20223;-79
2021/06/10 02:44:24;;;;;;;;;;;26.70;99.90;;;;;;1831749;77;20248;-78
2021/06/10 02:46:55;;;;;;;;;;;26.70;99.90;;;;;;1789349;79;20439;-78
2021/06/10 02:49:25;;;;;;;;;;;26.80;99.90;;;;;;1792191;79;20566;-78
2021/06/10 02:51:55;;;;;;;;;;;26.80;99.90;;;;;;1799464;79;20234;-77
2021/06/10 02:54:26;;;;;;;;;;;26.90;99.90;;;;;;1782601;79;20508;-78
2021/06/10 02:56:56;;;;;;;;;;;26.90;99.90;;;;;;1789657;79;20216;-78
2021/06/10 02:59:26;;;;;;;;;;;27.00;99.90;;;;;;1784003;79;20194;-78
2021/06/10 03:01:59;;;;;;;;;;;27.10;99.90;;;;;;1781248;79;20510;-78
2021/06/10 03:04:29;;;;;;;;;;;27.10;99.90;;;;;;1772303;80;20255;-78
2021/06/10 03:07:01;;;;;;;;;;;27.10;99.90;;;;;;1753644;80;20189;-79
2021/06/10 03:09:33;;;;;;;;;;;27.10;99.90;;;;;;1758647;80;20278;-79
2021/06/10 03:12:04;;;;;;;;;;;27.20;99.90;;;;;;1773167;80;20434;-79
2021/06/10 03:14:34;;;;;;;;;;;27.20;99.90;;;;;;1756779;80;20239;-80
2021/06/10 03:17:04;;;;;;;;;;;27.30;99.90;;;;;;1785139;79;20140;-79
2021/06/10 03:19:36;;;;;;;;;;;27.30;99.90;;;;;;1756161;80;20675;-78
2021/06/10 03:22:06;;;;;;;;;;;27.40;99.90;;;;;;1759719;80;20464;-79
2021/06/10 03:24:37;;;;;;;;;;;27.30;99.90;;;;;;1783125;79;20140;-78
2021/06/10 03:27:10;;;;;;;;;;;27.40;99.90;;;;;;1818964;77;20153;-80
2021/06/10 03:29:40;;;;;;;;;;;27.40;99.90;;;;;;1818913;77;20198;-80
2021/06/10 03:32:10;;;;;;;;;;;27.50;99.90;;;;;;1821310;77;20401;-79
2021/06/10 03:34:40;;;;;;;;;;;27.50;99.90;;;;;;1819861;77;20212;-77
2021/06/10 03:37:15;;;;;;;;;;;27.50;99.90;;;;;;1826487;77;20486;-76
2021/06/10 03:39:46;;;;;;;;;;;27.50;99.90;;;;;;1823098;77;20242;-77
2021/06/10 03:42:17;;;;;;;;;;;27.50;99.90;;;;;;1835879;77;20513;-77
2021/06/10 03:44:48;;;;;;;;;;;27.50;99.90;;;;;;1832667;77;20197;-77
2021/06/10 03:47:18;;;;;;;;;;;27.50;99.90;;;;;;1832830;77;20251;-77
2021/06/10 03:49:49;;;;;;;;;;;27.50;99.90;;;;;;1826627;77;20225;-78
2021/06/10 03:52:18;;;;;;;;;;;27.50;99.90;;;;;;1832812;77;20253;-76
2021/06/10 03:54:51;;;;;;;;;;;27.50;99.90;;;;;;1830934;77;20590;-77
2021/06/10 03:57:21;;;;;;;;;;;27.50;99.90;;;;;;1830749;77;20265;-76
2021/06/10 03:59:52;;;;;;;;;;;27.50;99.90;;;;;;1835798;77;20244;-77
2021/06/10 04:02:30;;;;;;;;;;;27.50;99.90;;;;;;1831669;77;20302;-79
2021/06/10 04:05:26;;;;;;;;;;;27.60;99.90;;;;;;1794183;78;20177;-76
2021/06/10 04:08:14;;;;;;;;;;;27.70;99.90;;;;;;1834196;77;20253;-77
2021/06/10 04:10:50;;;;;;;;;;;27.80;99.90;;;;;;1828790;77;20179;-76
2021/06/10 04:13:24;;;;;;;;;;;27.80;99.90;;;;;;1832408;77;20557;-76
2021/06/10 04:16:08;;;;;;;;;;;27.90;99.90;;;;;;1828363;77;20184;-76
2021/06/10 04:18:42;;;;;;;;;;;27.90;99.90;;;;;;1831238;77;20206;-79
2021/06/10 04:21:40;;;;;;;;;;;28.00;99.90;;;;;;1782015;80;20233;-78
2021/06/10 04:24:25;;;;;;;;;;;28.00;99.90;;;;;;1789007;79;20261;-79
2021/06/10 04:27:12;;;;;;;;;;;28.10;99.90;;;;;;1830096;77;20218;-78
2021/06/10 04:29:46;;;;;;;;;;;28.10;99.80;;;;;;1834575;77;20203;-78
2021/06/10 04:32:15;;;;;;;;;;;28.10;99.90;;;;;;1830429;77;20203;-76
2021/06/10 04:34:45;;;;;;;;;;;28.10;99.90;;;;;;1829151;77;20166;-78
2021/06/10 04:37:17;;;;;;;;;;;28.10;99.90;;;;;;1829233;77;20208;-77
2021/06/10 04:39:50;;;;;;;;;;;28.10;99.90;;;;;;1782886;79;20185;-78
2021/06/10 04:42:21;;;;;;;;;;;28.20;99.90;;;;;;1750627;81;20140;-78
2021/06/10 04:44:57;;;;;;;;;;;28.20;99.70;;;;;;1723032;83;20988;-78
2021/06/10 04:47:25;;;;;;;;;;;28.20;99.60;;;;;;1756593;80;20241;-77
2021/06/10 04:50:02;;;;;;;;;;;28.30;99.90;;;;;;1758498;80;20255;-77
2021/06/10 04:52:33;;;;;;;;;;;28.30;99.90;;;;;;1768274;80;20211;-77
2021/06/10 04:55:05;;;;;;;;;;;28.40;99.40;;;;;;1764731;80;20160;-78
2021/06/10 04:57:35;;;;;;;;;;;28.40;99.20;;;;;;1769291;80;20769;-77
2021/06/10 05:00:07;;;;;;;;;;;28.40;98.80;;;;;;1730062;81;20220;-77
2021/06/10 05:02:37;;;;;;;;;;;28.40;99.00;;;;;;1772627;80;20534;-78
2021/06/10 05:05:08;;;;;;;;;;;28.40;99.00;;;;;;1756277;80;20188;-77
2021/06/10 05:07:39;;;;;;;;;;;28.40;99.30;;;;;;1731124;81;20221;-78
2021/06/10 05:10:08;;;;;;;;;;;28.40;99.70;;;;;;1736940;81;20138;-76
2021/06/10 05:12:39;;;;;;;;;;;28.40;98.40;;;;;;1756309;81;20215;-77
2021/06/10 05:15:10;;;;;;;;;;;28.50;98.30;;;;;;1728928;81;20233;-78
2021/06/10 05:17:40;;;;;;;;;;;28.50;99.00;;;;;;1755484;80;20235;-76
2021/06/10 05:20:13;;;;;;;;;;;28.50;98.40;;;;;;1775417;80;20221;-78
2021/06/10 05:22:44;;;;;;;;;;;28.60;98.00;;;;;;1803139;78;20788;-78
2021/06/10 05:25:14;;;;;;;;;;;28.60;97.60;;;;;;1802133;78;20802;-76
2021/06/10 05:27:43;;;;;;;;;;;28.60;97.90;;;;;;1808800;78;20217;-75
2021/06/10 05:30:13;;;;;;;;;;;28.60;98.40;;;;;;1801623;78;20253;-77
2021/06/10 05:32:44;;;;;;;;;;;28.60;97.40;;;;;;1797752;78;20206;-79
2021/06/10 05:35:17;;;;;;;;;;;28.70;97.20;;;;;;1775378;78;20470;-78
2021/06/10 05:37:46;;;;;;;;;;;28.70;97.40;;;;;;1810803;78;20136;-77
2021/06/10 05:40:19;;;;;;;;;;;28.80;97.70;;;;;;1804333;78;20465;-78
2021/06/10 05:42:53;;;;;;;;;;;28.90;97.20;;;;;;1855796;77;20182;-78
2021/06/10 05:45:23;;;;;;;;;;;28.90;96.60;;;;;;1854457;77;20231;-79
2021/06/10 05:47:53;;;;;;;;;;;28.80;96.90;;;;;;1851203;77;20292;-78
2021/06/10 05:50:25;;;;;;;;;;;28.90;97.00;;;;;;1843310;77;20610;-76
2021/06/10 05:52:54;;;;;;;;;;;28.90;96.20;;;;;;1844169;77;20237;-76
2021/06/10 05:55:24;;;;;;;;;;;28.80;96.10;;;;;;1841603;77;20257;-76
2021/06/10 05:57:54;;;;;;;;;;;28.80;96.40;;;;;;1841154;78;20187;-76
2021/06/10 06:00:25;;;;;;;;;;;28.80;96.90;;;;;;1836544;77;20238;-77
2021/06/10 06:02:55;;;;;;;;;;;28.90;96.50;;;;;;1853540;77;20203;-78
2021/06/10 06:05:25;;;;;;;;;;;28.90;96.30;;;;;;1847457;77;20138;-77
2021/06/10 06:07:55;;;;;;;;;;;28.80;96.30;;;;;;1851175;77;20190;-76
2021/06/10 06:10:28;;;;;;;;;;;28.80;96.30;;;;;;1850193;77;20295;-76
2021/06/10 06:13:00;;;;;;;;;;;28.80;96.10;;;;;;1865826;77;20184;-76
2021/06/10 06:15:29;;;;;;;;;;;28.80;96.30;;;;;;1844780;76;20286;-77
2021/06/10 06:17:59;;;;;;;;;;;28.80;96.50;;;;;;1850563;77;20163;-76
2021/06/10 06:20:29;;;;;;;;;;;28.90;96.50;;;;;;1844930;77;20262;-76
2021/06/10 06:23:04;;;;;;;;;;;28.90;96.20;;;;;;1845143;77;20164;-77
2021/06/10 06:25:35;;;;;;;;;;;28.80;96.20;;;;;;1843465;77;20235;-76
2021/06/10 06:28:04;;;;;;;;;;;28.90;96.30;;;;;;1841247;77;20466;-76
2021/06/10 06:30:34;;;;;;;;;;;28.90;96.20;;;;;;1848439;77;20201;-77
2021/06/10 06:33:04;;;;;;;;;;;28.90;96.40;;;;;;1852205;77;20223;-77
2021/06/10 06:35:34;;;;;;;;;;;28.90;96.30;;;;;;1847387;77;20140;-78
2021/06/10 06:38:06;;;;;;;;;;;29.00;96.30;;;;;;1858143;77;20205;-77
2021/06/10 06:40:36;;;;;;;;;;;29.00;96.30;;;;;;1839485;78;20624;-76
2021/06/10 06:43:06;;;;;;;;;;;29.00;95.90;;;;;;1843455;77;20199;-77
2021/06/10 06:45:40;;;;;;;;;;;29.00;96.10;;;;;;1866206;76;20773;-77
2021/06/10 06:48:26;;;;;;;;;;;29.00;96.20;;;;;;1860407;77;20214;-77
2021/06/10 06:51:07;;;;;;;;;;;29.00;96.20;;;;;;1813725;77;20235;-78
2021/06/10 06:53:39;;;;;;;;;;;29.00;96.20;;;;;;1848515;77;20220;-78
2021/06/10 06:56:10;;;;;;;;;;;29.00;96.10;;;;;;1850148;77;20410;-78
2021/06/10 06:58:41;;;;;;;;;;;29.00;96.30;;;;;;1841141;77;20227;-79
2021/06/10 07:01:11;;;;;;;;;;;29.00;96.30;;;;;;1841000;77;20219;-79
2021/06/10 07:03:43;;;;;;;;;;;29.00;96.70;;;;;;1834051;77;20279;-79
2021/06/10 07:06:13;;;;;;;;;;;28.90;97.00;;;;;;1813298;77;20264;-78
2021/06/10 07:08:43;;;;;;;;;;;28.90;96.70;;;;;;1833277;77;20268;-77
2021/06/10 07:11:14;;;;;;;;;;;28.90;97.00;;;;;;1830826;77;20786;-77
2021/06/10 07:13:47;;;;;;;;;;;28.80;97.10;;;;;;1780739;79;20251;-77
2021/06/10 07:16:16;;;;;;;;;;;28.80;97.20;;;;;;1763997;80;20250;-79
2021/06/10 07:18:49;;;;;;;;;;;28.80;97.50;;;;;;1766434;80;20600;-77
2021/06/10 07:21:21;;;;;;;;;;;28.80;97.40;;;;;;1729605;81;20239;-77
2021/06/10 07:23:54;;;;;;;;;;;28.80;97.60;;;;;;1742351;81;20237;-79
2021/06/10 07:26:24;;;;;;;;;;;28.80;97.40;;;;;;1782827;79;20564;-77
2021/06/10 07:28:53;;;;;;;;;;;28.80;97.60;;;;;;1769039;79;20463;-77
2021/06/10 07:31:29;;;;;;;;;;;28.70;98.10;;;;;;1770203;79;20242;-78
2021/06/10 07:34:18;;;;;;;;;;;28.80;97.90;;;;;;1794659;78;20490;-77
2021/06/10 07:36:48;;;;;;;;;;;28.80;97.90;;;;;;1892577;74;20199;-78
2021/06/10 07:39:19;;;;;;;;;;;28.80;98.00;;;;;;1888518;74;20453;-77
2021/06/10 07:41:48;;;;;;;;;;;28.80;97.60;;;;;;1857795;76;20165;-77
2021/06/10 07:44:20;;;;;;;;;;;28.80;97.80;;;;;;1855311;75;20256;-80
2021/06/10 07:46:49;;;;;;;;;;;28.70;97.90;;;;;;1890470;74;20175;-79
2021/06/10 07:49:20;;;;;;;;;;;28.70;97.90;;;;;;1884756;74;20247;-78
2021/06/10 07:51:55;;;;;;;;;;;28.70;97.70;;;;;;1885346;74;20656;-79
2021/06/10 07:54:21;;;;;;;;;;;28.70;98.20;;;;;;1866489;75;20188;-80
2021/06/10 07:56:51;;;;;;;;;;;28.70;98.20;;;;;;1884315;74;20468;-79
2021/06/10 07:59:26;;;;;;;;;;;28.60;98.20;;;;;;1887464;74;20164;-79
2021/06/10 08:01:53;;;;;;;;;;;28.70;98.30;;;;;;1850206;76;20211;-79
2021/06/10 08:04:25;;;;;;;;;;;28.60;98.40;;;;;;1865366;75;20780;-77
2021/06/10 08:06:56;;;;;;;;;;;28.70;98.50;;;;;;1866028;75;20263;-79
2021/06/10 08:09:26;;;;;;;;;;;28.60;98.40;;;;;;1874816;75;20889;-78
2021/06/10 08:12:01;;;;;;;;;;;28.70;98.30;;;;;;1887571;74;20193;-78
2021/06/10 08:14:29;;;;;;;;;;;28.60;98.40;;;;;;1885278;74;20185;-78
2021/06/10 08:17:01;;;;;;;;;;;28.70;98.50;;;;;;1854990;76;20138;-78
2021/06/10 08:19:32;;;;;;;;;;;28.60;98.50;;;;;;1882533;74;20138;-79
2021/06/10 08:22:06;;;;;;;;;;;28.60;98.70;;;;;;1856514;76;20152;-79
2021/06/10 08:24:38;;;;;;;;;;;28.60;98.00;;;;;;1899355;74;20247;-79
2021/06/10 08:27:08;;;;;;;;;;;28.60;97.70;;;;;;1889161;74;20181;-78
2021/06/10 08:29:43;;;;;;;;;;;28.60;98.00;;;;;;1851639;74;20240;-79
2021/06/10 08:32:16;;;;;;;;;;;28.50;97.60;;;;;;1864014;76;20198;-79
2021/06/10 08:34:54;;;;;;;;;;;28.60;97.90;;;;;;1850967;76;20247;-79
2021/06/10 08:37:24;;;;;;;;;;;28.60;97.20;;;;;;1893610;75;20580;-78
2021/06/10 08:39:54;;;;;;;;;;;28.50;96.30;;;;;;1897612;75;20212;-78
2021/06/10 08:42:24;;;;;;;;;;;28.60;96.30;;;;;;1893789;75;20318;-77
2021/06/10 08:44:54;;;;;;;;;;;28.60;96.30;;;;;;1895294;75;20256;-78
2021/06/10 08:47:25;;;;;;;;;;;28.60;96.20;;;;;;1886752;75;20305;-78
2021/06/10 08:49:56;;;;;;;;;;;28.50;96.60;;;;;;1883451;75;20233;-78
2021/06/10 08:52:26;;;;;;;;;;;28.60;96.70;;;;;;1895545;75;20122;-78
2021/06/10 08:54:56;;;;;;;;;;;28.70;96.60;;;;;;1891046;75;20192;-78
2021/06/10 08:57:27;;;;;;;;;;;28.60;96.40;;;;;;1889894;75;20258;-79
2021/06/10 08:59:56;;;;;;;;;;;28.70;96.50;;;;;;1891343;75;20179;-81
2021/06/10 09:02:26;;;;;;;;;;;28.70;96.60;;;;;;1894316;75;20507;-80
2021/06/10 09:04:58;;;;;;;;;;;28.70;96.70;;;;;;1887220;75;20451;-79
2021/06/10 09:07:31;;;;;;;;;;;28.70;96.50;;;;;;1894133;75;20190;-78
2021/06/10 09:10:01;;;;;;;;;;;28.70;96.30;;;;;;1879522;75;20507;-78
2021/06/10 09:12:33;;;;;;;;;;;28.80;96.50;;;;;;1888177;75;20433;-78
2021/06/10 09:15:09;;;;;;;;;;;28.80;96.20;;;;;;1783225;78;20182;-79
2021/06/10 09:17:38;;;;;;;;;;;28.90;96.30;;;;;;1825380;77;20200;-78
2021/06/10 09:20:09;;;;;;;;;;;28.80;96.30;;;;;;1820030;77;20212;-80
2021/06/10 09:22:40;;;;;;;;;;;28.80;96.40;;;;;;1791022;78;20251;-80
2021/06/10 09:25:11;;;;;;;;;;;28.80;96.50;;;;;;1802439;78;20217;-80
2021/06/10 09:27:42;;;;;;;;;;;28.90;96.50;;;;;;1802710;78;20253;-80
2021/06/10 09:30:12;;;;;;;;;;;28.90;96.50;;;;;;1796889;78;20271;-79
2021/06/10 09:32:45;;;;;;;;;;;28.90;96.60;;;;;;1801015;78;20290;-79
2021/06/10 09:35:15;;;;;;;;;;;28.90;96.60;;;;;;1824761;78;20295;-80
2021/06/10 09:37:46;;;;;;;;;;;28.80;96.90;;;;;;1804682;78;20224;-79
2021/06/10 09:40:18;;;;;;;;;;;28.90;97.00;;;;;;1814781;78;20800;-81
2021/06/10 09:42:58;;;;;;;;;;;28.80;97.10;;;;;;1826430;78;20211;-79
2021/06/10 09:45:29;;;;;;;;;;;28.90;96.60;;;;;;1823290;78;20213;-79
2021/06/10 09:48:00;;;;;;;;;;;28.90;96.20;;;;;;1833320;78;20590;-80
2021/06/10 09:50:31;;;;;;;;;;;28.90;95.90;;;;;;1826759;78;20208;-77
2021/06/10 09:53:02;;;;;;;;;;;28.80;96.00;;;;;;1826974;78;20202;-79
2021/06/10 09:55:35;;;;;;;;;;;28.90;96.20;;;;;;1826077;77;20182;-78
2021/06/10 09:58:08;;;;;;;;;;;28.80;96.10;;;;;;1824252;78;20272;-79
2021/06/10 10:00:38;;;;;;;;;;;28.80;96.10;;;;;;1834674;78;20508;-78
2021/06/10 10:03:08;;;;;;;;;;;28.80;95.80;;;;;;1835147;78;20159;-78
2021/06/10 10:05:38;;;;;;;;;;;28.80;95.60;;;;;;1826372;78;20287;-77
2021/06/10 10:08:14;;;;;;;;;;;28.80;95.30;;;;;;1827034;78;20155;-78
2021/06/10 10:10:39;;;;;;;;;;;28.80;95.40;;;;;;1827115;78;20178;-76
2021/06/10 10:13:12;;;;;;;;;;;28.80;95.60;;;;;;1850059;76;20514;-78
2021/06/10 10:15:59;;;;;;;;;;;28.70;95.80;;;;;;1857185;75;20188;-77
2021/06/10 10:18:29;;;;;;;;;;;28.70;95.40;;;;;;1922477;73;20134;-77
2021/06/10 10:21:00;;;;;;;;;;;28.70;95.30;;;;;;1925254;73;20181;-79
2021/06/10 10:23:31;;;;;;;;;;;28.80;95.60;;;;;;1921668;73;20247;-78
2021/06/10 10:26:03;;;;;;;;;;;28.80;95.50;;;;;;1928264;73;20185;-79
2021/06/10 10:28:35;;;;;;;;;;;28.80;95.60;;;;;;1923206;73;20491;-78
2021/06/10 10:31:05;;;;;;;;;;;28.80;96.20;;;;;;1921275;73;20235;-78
2021/06/10 10:33:37;;;;;;;;;;;28.80;95.80;;;;;;1928633;73;20232;-79
2021/06/10 10:36:06;;;;;;;;;;;28.70;96.00;;;;;;1921795;74;20231;-79
2021/06/10 10:38:40;;;;;;;;;;;28.70;96.20;;;;;;1918276;73;20192;-78
2021/06/10 10:41:09;;;;;;;;;;;28.70;95.90;;;;;;1928699;73;20212;-79
2021/06/10 10:43:40;;;;;;;;;;;28.70;96.10;;;;;;1919219;73;20239;-78
2021/06/10 10:46:16;;;;;;;;;;;28.70;95.90;;;;;;1885694;74;20249;-79
2021/06/10 10:48:59;;;;;;;;;;;28.70;96.00;;;;;;1914270;73;20126;-79
2021/06/10 10:51:27;;;;;;;;;;;28.70;96.20;;;;;;1914137;73;20269;-78
2021/06/10 10:53:59;;;;;;;;;;;28.70;96.30;;;;;;1933573;73;20200;-78
2021/06/10 10:56:29;;;;;;;;;;;28.70;96.40;;;;;;1937042;73;20116;-78
2021/06/10 10:59:01;;;;;;;;;;;28.60;96.50;;;;;;1938347;73;20217;-78
2021/06/10 11:01:31;;;;;;;;;;;28.60;96.70;;;;;;1920883;73;20202;-78
2021/06/10 11:04:05;;;;;;;;;;;28.60;96.70;;;;;;1921819;73;20224;-78
2021/06/10 11:06:37;;;;;;;;;;;28.60;96.80;;;;;;1892659;75;20180;-79
2021/06/10 11:09:12;;;;;;;;;;;28.50;96.90;;;;;;1914005;74;20236;-78
2021/06/10 11:11:40;;;;;;;;;;;28.50;97.00;;;;;;1882456;75;20203;-79
2021/06/10 11:14:11;;;;;;;;;;;28.50;97.10;;;;;;1921930;74;20514;-81
2021/06/10 11:16:46;;;;;;;;;;;28.50;97.20;;;;;;1915713;74;20207;-81
2021/06/10 11:19:17;;;;;;;;;;;28.50;97.20;;;;;;1922495;74;20475;-80
2021/06/10 11:21:48;;;;;;;;;;;28.50;97.30;;;;;;1922565;74;20240;-80
2021/06/10 11:24:21;;;;;;;;;;;28.40;97.30;;;;;;1916832;74;20183;-78
2021/06/10 11:26:54;;;;;;;;;;;28.40;97.40;;;;;;1955424;73;20196;-78
2021/06/10 11:29:23;;;;;;;;;;;28.40;97.70;;;;;;1901197;74;20268;-78
2021/06/10 11:31:54;;;;;;;;;;;28.40;97.50;;;;;;1938670;73;20168;-78
2021/06/10 11:34:25;;;;;;;;;;;28.30;97.50;;;;;;1945536;73;20183;-78
2021/06/10 11:36:56;;;;;;;;;;;28.30;97.50;;;;;;1957987;73;20245;-79
2021/06/10 11:39:31;;;;;;;;;;;28.30;97.60;;;;;;1938498;74;20171;-79
2021/06/10 11:41:58;;;;;;;;;;;28.30;97.60;;;;;;1934039;73;20134;-79
2021/06/10 11:44:28;;;;;;;;;;;28.20;97.50;;;;;;1901962;74;20162;-79
2021/06/10 11:47:01;;;;;;;;;;;28.20;97.60;;;;;;1914829;74;20201;-80
2021/06/10 11:49:32;;;;;;;;;;;28.20;98.00;;;;;;1931313;73;20538;-81
2021/06/10 11:52:02;;;;;;;;;;;28.20;97.00;;;;;;1938374;73;20176;-80
2021/06/10 11:54:33;;;;;;;;;;;28.20;96.60;;;;;;1948923;73;20239;-79
2021/06/10 11:57:04;;;;;;;;;;;28.10;95.10;;;;;;1922647;74;20239;-79
2021/06/10 11:59:37;;;;;;;;;;;28.10;95.40;;;;;;1938345;73;20130;-80
2021/06/10 12:02:06;;;;;;;;;;;28.10;95.60;;;;;;1953571;73;20182;-79
2021/06/10 12:04:40;;;;;;;;;;;28.00;96.00;;;;;;1943857;73;20562;-79
2021/06/10 12:07:20;;;;;;;;;;;28.00;96.60;;;;;;1841974;77;20248;-79
2021/06/10 12:09:51;;;;;;;;;;;28.00;97.70;;;;;;1832729;78;20274;-80
2021/06/10 12:12:22;;;;;;;;;;;27.80;98.10;;;;;;1859848;77;20217;-79
2021/06/10 12:14:52;;;;;;;;;;;27.70;98.50;;;;;;1863412;75;20215;-79
2021/06/10 12:17:21;;;;;;;;;;;27.60;99.10;;;;;;1837642;77;20314;-80
2021/06/10 12:19:52;;;;;;;;;;;27.50;99.50;;;;;;1854202;76;20223;-79
2021/06/10 12:22:22;;;;;;;;;;;27.30;99.80;;;;;;1860198;75;20587;-79
2021/06/10 12:24:52;;;;;;;;;;;27.20;99.90;;;;;;1835723;76;20246;-79
2021/06/10 12:27:22;;;;;;;;;;;27.00;99.90;;;;;;1890441;74;20264;-79
2021/06/10 12:29:52;;;;;;;;;;;26.90;99.90;;;;;;1888629;74;20851;-80
2021/06/10 12:32:23;;;;;;;;;;;26.70;99.90;;;;;;1941685;73;20154;-79
2021/06/10 12:34:53;;;;;;;;;;;26.60;99.90;;;;;;1909727;74;20537;-80
2021/06/10 12:37:24;;;;;;;;;;;26.50;99.90;;;;;;1907683;73;20618;-79
2021/06/10 12:39:54;;;;;;;;;;;26.40;99.90;;;;;;1930804;73;20152;-79
2021/06/10 12:42:26;;;;;;;;;;;26.30;99.90;;;;;;1896875;75;20462;-78
2021/06/10 12:44:59;;;;;;;;;;;26.30;99.90;;;;;;1888586;74;20240;-79
2021/06/10 12:47:27;;;;;;;;;;;26.20;99.90;;;;;;1896360;74;20149;-80
2021/06/10 12:49:57;;;;;;;;;;;26.20;99.90;;;;;;1937482;73;20224;-79
2021/06/10 12:52:27;;;;;;;;;;;26.20;99.90;;;;;;1932098;73;20143;-79
2021/06/10 12:54:58;;;;;;;;;;;26.20;99.90;;;;;;1893854;74;20245;-78
2021/06/10 12:57:29;;;;;;;;;;;26.20;99.90;;;;;;1934258;73;20233;-80
2021/06/10 12:59:59;;;;;;;;;;;26.20;99.90;;;;;;1908140;75;20204;-79
2021/06/10 13:02:32;;;;;;;;;;;26.20;99.90;;;;;;1927551;73;20191;-79
2021/06/10 13:05:04;;;;;;;;;;;26.20;99.90;;;;;;1881391;75;20210;-80
2021/06/10 13:07:36;;;;;;;;;;;26.20;99.90;;;;;;1923803;73;20225;-80
2021/06/10 13:10:07;;;;;;;;;;;26.20;99.90;;;;;;1923666;73;20159;-79
2021/06/10 13:12:38;;;;;;;;;;;26.10;99.90;;;;;;1908308;73;20172;-87
2021/06/10 13:15:10;;;;;;;;;;;26.10;99.90;;;;;;1929833;73;20175;-86
2021/06/10 13:17:41;;;;;;;;;;;26.00;99.90;;;;;;1941479;73;20260;-87
2021/06/10 13:20:11;;;;;;;;;;;25.90;99.90;;;;;;1893357;74;20207;-89
2021/06/10 13:22:41;;;;;;;;;;;25.90;99.90;;;;;;1927485;73;20259;-86
2021/06/10 13:25:11;;;;;;;;;;;25.80;99.90;;;;;;1938887;74;20191;-85
2021/06/10 13:27:41;;;;;;;;;;;25.80;99.90;;;;;;1897367;75;20127;-87
2021/06/10 13:30:12;;;;;;;;;;;25.80;99.90;;;;;;1928261;73;20111;-87
2021/06/10 13:32:42;;;;;;;;;;;25.80;99.90;;;;;;1938033;73;20129;-86
2021/06/10 13:35:14;;;;;;;;;;;25.80;99.90;;;;;;1954319;73;20129;-87
2021/06/10 13:37:43;;;;;;;;;;;25.80;99.90;;;;;;1939183;73;20174;-88
2021/06/10 13:40:13;;;;;;;;;;;25.90;99.90;;;;;;1962702;73;20349;-87
2021/06/10 13:42:47;;;;;;;;;;;25.90;99.90;;;;;;1945767;73;20238;-89
2021/06/10 13:45:15;;;;;;;;;;;26.00;99.90;;;;;;1945030;73;20197;-87
2021/06/10 13:47:45;;;;;;;;;;;26.00;99.90;;;;;;1961207;73;20143;-87
2021/06/10 13:50:15;;;;;;;;;;;26.10;99.90;;;;;;1961832;73;20190;-88
2021/06/10 13:52:44;;;;;;;;;;;26.10;99.90;;;;;;1961960;73;20127;-86
2021/06/10 13:55:14;;;;;;;;;;;26.10;99.90;;;;;;1962200;73;20115;-89
2021/06/10 13:57:45;;;;;;;;;;;26.20;99.90;;;;;;1954831;73;20156;-89
2021/06/10 14:00:16;;;;;;;;;;;26.20;99.90;;;;;;1930801;73;20200;-90
2021/06/10 14:02:46;;;;;;;;;;;26.20;99.90;;;;;;1903783;74;20119;-90
2021/06/10 14:05:22;;;;;;;;;;;26.20;99.90;;;;;;1948608;73;20468;-88
2021/06/10 14:07:52;;;;;;;;;;;26.20;99.90;;;;;;1915261;74;20178;-87
2021/06/10 14:10:26;;;;;;;;;;;26.10;99.90;;;;;;1927943;73;20161;-88
2021/06/10 14:13:24;;;;;;;;;;;26.10;99.90;;;;;;1941810;73;20193;-89
2021/06/10 14:15:49;;;;;;;;;;;26.10;99.90;;;;;;1959385;73;20442;-88
2021/06/10 14:18:19;;;;;;;;;;;26.10;99.90;;;;;;1954021;73;20252;-88
2021/06/10 14:23:56;;;;;;;;;;;26.00;99.90;;;;;;1932558;73;20232;-89
2021/06/10 14:26:27;;;;;;;;;;;26.00;99.90;;;;;;1917223;73;20197;-89
2021/06/10 14:34:18;;;;;;;;;;;25.90;99.90;;;;;;1920156;73;20261;-88
2021/06/10 14:36:50;;;;;;;;;;;25.90;99.90;;;;;;1940112;73;20191;-87
2021/06/10 14:39:20;;;;;;;;;;;25.90;99.90;;;;;;1926372;73;20155;-88
2021/06/10 14:41:50;;;;;;;;;;;25.90;99.90;;;;;;1929128;73;20189;-89
2021/06/10 14:44:24;;;;;;;;;;;25.90;99.90;;;;;;1956538;73;20182;-89
2021/06/10 14:46:55;;;;;;;;;;;25.90;99.90;;;;;;1960396;73;20187;-89
2021/06/10 14:49:37;;;;;;;;;;;25.90;99.90;;;;;;1880107;74;20213;-89